47PA weather

Homan Airport
State College, Pennsylvania, United States

Public forecast

Using degrees Fahrenheit for public forecast. Weather courtesy of forecast.io.

Closest aviation weather report (METAR) to Homan Airport

Closest report is University Park Airport, 10.0 nm (18.6 km) NE. Retrieved 2019/10/23 08:36 UTC (10 minutes ago):

KUNV 230836Z AUTO 27003KT 10SM CLR 07/07 A2990 RMK AO2 T00710071

Closest aviation forecast (TAF) to Homan Airport

Closest forecast is University Park Airport, 10.0 nm (18.6 km) NE. Retrieved 2019/10/23 06:54 UTC (2 hours ago):

TAF KUNV 230551Z 2306/2406 00000KT 1/4SM FG OVC001 TEMPO 2306/2309 1/2SM FG SKC FM230900 25004KT P6SM VCFG SCT250 FM231500 26013G20KT P6SM SKC